sensor_id;sensor_type;location;lat;lon;timestamp;pressure;altitude;pressure_sealevel;temperature;humidity
75923;BME280;64602;47.542;19.090;2023-12-20T00:04:56;100562.91;;;-1.08;100.00
75923;BME280;64602;47.542;19.090;2023-12-20T00:09:58;100537.69;;;-1.28;100.00
75923;BME280;64602;47.542;19.090;2023-12-20T00:15:00;100536.97;;;-1.22;100.00
75923;BME280;64602;47.542;19.090;2023-12-20T00:20:03;100523.34;;;-1.27;100.00
75923;BME280;64602;47.542;19.090;2023-12-20T00:25:05;100540.50;;;-1.21;100.00
75923;BME280;64602;47.542;19.090;2023-12-20T00:30:08;100526.16;;;-1.20;100.00
75923;BME280;64602;47.542;19.090;2023-12-20T00:35:11;100523.00;;;-1.16;100.00
75923;BME280;64602;47.542;19.090;2023-12-20T00:40:14;100508.56;;;-1.30;100.00
75923;BME280;64602;47.542;19.090;2023-12-20T00:45:16;100495.75;;;-1.34;100.00
75923;BME280;64602;47.542;19.090;2023-12-20T00:50:18;100484.09;;;-1.25;100.00
75923;BME280;64602;47.542;19.090;2023-12-20T00:55:20;100479.25;;;-1.21;100.00
75923;BME280;64602;47.542;19.090;2023-12-20T01:00:22;100470.91;;;-1.18;100.00
75923;BME280;64602;47.542;19.090;2023-12-20T01:05:25;100457.50;;;-1.41;100.00
75923;BME280;64602;47.542;19.090;2023-12-20T01:10:27;100468.78;;;-1.23;100.00
75923;BME280;64602;47.542;19.090;2023-12-20T01:15:30;100466.41;;;-1.18;100.00
75923;BME280;64602;47.542;19.090;2023-12-20T01:20:32;100442.16;;;-1.23;100.00
75923;BME280;64602;47.542;19.090;2023-12-20T01:25:35;100436.75;;;-1.15;100.00
75923;BME280;64602;47.542;19.090;2023-12-20T01:30:38;100434.16;;;-1.23;100.00
75923;BME280;64602;47.542;19.090;2023-12-20T01:35:40;100436.31;;;-1.18;100.00
75923;BME280;64602;47.542;19.090;2023-12-20T01:40:42;100428.84;;;-1.23;100.00
75923;BME280;64602;47.542;19.090;2023-12-20T01:45:44;100405.25;;;-1.34;100.00
75923;BME280;64602;47.542;19.090;2023-12-20T01:50:46;100406.87;;;-1.25;100.00
75923;BME280;64602;47.542;19.090;2023-12-20T01:55:50;100396.22;;;-1.25;100.00
75923;BME280;64602;47.542;19.090;2023-12-20T02:00:55;100369.13;;;-1.28;100.00
75923;BME280;64602;47.542;19.090;2023-12-20T02:05:57;100372.63;;;-1.28;100.00
75923;BME280;64602;47.542;19.090;2023-12-20T02:11:00;100359.75;;;-1.24;100.00
75923;BME280;64602;47.542;19.090;2023-12-20T02:16:02;100350.38;;;-1.12;100.00
75923;BME280;64602;47.542;19.090;2023-12-20T02:21:05;100347.69;;;-1.12;100.00
75923;BME280;64602;47.542;19.090;2023-12-20T02:26:07;100337.34;;;-1.07;100.00
75923;BME280;64602;47.542;19.090;2023-12-20T02:31:10;100329.84;;;-1.03;100.00
75923;BME280;64602;47.542;19.090;2023-12-20T02:36:12;100332.44;;;-0.95;100.00
75923;BME280;64602;47.542;19.090;2023-12-20T02:41:14;100315.06;;;-1.06;100.00
75923;BME280;64602;47.542;19.090;2023-12-20T02:46:19;100300.25;;;-1.09;100.00
75923;BME280;64602;47.542;19.090;2023-12-20T02:51:22;100306.66;;;-1.18;100.00
75923;BME280;64602;47.542;19.090;2023-12-20T02:56:24;100294.87;;;-1.23;100.00
75923;BME280;64602;47.542;19.090;2023-12-20T03:01:27;100281.72;;;-1.25;100.00
75923;BME280;64602;47.542;19.090;2023-12-20T03:06:29;100292.50;;;-1.18;100.00
75923;BME280;64602;47.542;19.090;2023-12-20T03:11:31;100300.06;;;-1.07;100.00
75923;BME280;64602;47.542;19.090;2023-12-20T03:16:34;100287.09;;;-1.10;100.00
75923;BME280;64602;47.542;19.090;2023-12-20T03:21:38;100277.66;;;-1.13;100.00
75923;BME280;64602;47.542;19.090;2023-12-20T03:26:40;100284.72;;;-1.05;100.00
75923;BME280;64602;47.542;19.090;2023-12-20T03:31:42;100288.34;;;-0.98;100.00
75923;BME280;64602;47.542;19.090;2023-12-20T03:36:44;100301.00;;;-1.00;100.00
75923;BME280;64602;47.542;19.090;2023-12-20T03:41:49;100302.16;;;-0.94;100.00
75923;BME280;64602;47.542;19.090;2023-12-20T03:46:51;100281.81;;;-0.95;100.00
75923;BME280;64602;47.542;19.090;2023-12-20T03:51:54;100303.53;;;-0.83;100.00
75923;BME280;64602;47.542;19.090;2023-12-20T03:56:56;100294.06;;;-0.86;100.00
75923;BME280;64602;47.542;19.090;2023-12-20T04:01:59;100293.41;;;-0.88;100.00
75923;BME280;64602;47.542;19.090;2023-12-20T04:07:01;100277.31;;;-0.95;100.00
75923;BME280;64602;47.542;19.090;2023-12-20T04:12:03;100282.66;;;-0.95;100.00
75923;BME280;64602;47.542;19.090;2023-12-20T04:17:07;100278.72;;;-0.99;100.00
75923;BME280;64602;47.542;19.090;2023-12-20T04:22:09;100268.41;;;-1.02;100.00
75923;BME280;64602;47.542;19.090;2023-12-20T04:27:11;100257.84;;;-0.95;100.00
75923;BME280;64602;47.542;19.090;2023-12-20T04:32:13;100239.53;;;-1.13;100.00
75923;BME280;64602;47.542;19.090;2023-12-20T04:37:15;100244.97;;;-1.06;100.00
75923;BME280;64602;47.542;19.090;2023-12-20T04:42:18;100243.13;;;-1.06;100.00
75923;BME280;64602;47.542;19.090;2023-12-20T04:47:20;100226.69;;;-1.10;100.00
75923;BME280;64602;47.542;19.090;2023-12-20T04:52:22;100201.59;;;-1.15;100.00
75923;BME280;64602;47.542;19.090;2023-12-20T04:57:25;100194.34;;;-1.21;100.00
75923;BME280;64602;47.542;19.090;2023-12-20T05:02:27;100180.84;;;-1.20;100.00
75923;BME280;64602;47.542;19.090;2023-12-20T05:07:29;100199.59;;;-1.13;100.00
75923;BME280;64602;47.542;19.090;2023-12-20T05:12:31;100187.38;;;-1.08;100.00
75923;BME280;64602;47.542;19.090;2023-12-20T05:17:33;100179.28;;;-1.14;100.00
75923;BME280;64602;47.542;19.090;2023-12-20T05:22:36;100166.22;;;-1.24;100.00
75923;BME280;64602;47.542;19.090;2023-12-20T05:27:38;100152.28;;;-1.26;100.00
75923;BME280;64602;47.542;19.090;2023-12-20T05:32:41;100159.78;;;-1.30;100.00
75923;BME280;64602;47.542;19.090;2023-12-20T05:37:44;100173.31;;;-1.31;100.00
75923;BME280;64602;47.542;19.090;2023-12-20T05:42:46;100184.53;;;-1.21;100.00
75923;BME280;64602;47.542;19.090;2023-12-20T05:47:49;100169.19;;;-1.19;100.00
75923;BME280;64602;47.542;19.090;2023-12-20T05:52:51;100146.88;;;-1.18;100.00
75923;BME280;64602;47.542;19.090;2023-12-20T05:57:53;100152.69;;;-0.99;100.00
75923;BME280;64602;47.542;19.090;2023-12-20T06:02:55;100121.81;;;-1.23;100.00
75923;BME280;64602;47.542;19.090;2023-12-20T06:07:57;100128.87;;;-1.31;100.00
75923;BME280;64602;47.542;19.090;2023-12-20T06:13:03;100122.63;;;-1.38;100.00
75923;BME280;64602;47.542;19.090;2023-12-20T06:18:06;100131.53;;;-1.31;100.00
75923;BME280;64602;47.542;19.090;2023-12-20T06:23:08;100127.19;;;-1.46;100.00
75923;BME280;64602;47.542;19.090;2023-12-20T06:28:11;100145.84;;;-1.32;100.00
75923;BME280;64602;47.542;19.090;2023-12-20T06:33:16;100123.56;;;-1.31;100.00
75923;BME280;64602;47.542;19.090;2023-12-20T06:38:19;100139.91;;;-1.19;100.00
75923;BME280;64602;47.542;19.090;2023-12-20T06:43:21;100165.13;;;-1.30;100.00
75923;BME280;64602;47.542;19.090;2023-12-20T06:48:43;100177.53;;;-1.22;100.00
75923;BME280;64602;47.542;19.090;2023-12-20T06:53:45;100183.44;;;-1.12;100.00
75923;BME280;64602;47.542;19.090;2023-12-20T06:58:47;100196.19;;;-1.07;100.00
75923;BME280;64602;47.542;19.090;2023-12-20T07:03:49;100194.47;;;-1.00;100.00
75923;BME280;64602;47.542;19.090;2023-12-20T07:08:52;100186.75;;;-0.95;100.00
75923;BME280;64602;47.542;19.090;2023-12-20T07:13:54;100201.47;;;-0.99;100.00
75923;BME280;64602;47.542;19.090;2023-12-20T07:18:56;100174.56;;;-1.04;100.00
75923;BME280;64602;47.542;19.090;2023-12-20T07:23:59;100187.88;;;-1.04;100.00
75923;BME280;64602;47.542;19.090;2023-12-20T07:29:01;100189.87;;;-1.06;100.00
75923;BME280;64602;47.542;19.090;2023-12-20T07:34:03;100184.91;;;-1.09;100.00
75923;BME280;64602;47.542;19.090;2023-12-20T07:39:06;100190.53;;;-1.04;100.00
75923;BME280;64602;47.542;19.090;2023-12-20T07:44:08;100184.06;;;-1.10;100.00
75923;BME280;64602;47.542;19.090;2023-12-20T07:49:10;100181.31;;;-1.16;100.00
75923;BME280;64602;47.542;19.090;2023-12-20T07:54:13;100183.78;;;-1.15;100.00
75923;BME280;64602;47.542;19.090;2023-12-20T07:59:15;100174.44;;;-1.11;100.00
75923;BME280;64602;47.542;19.090;2023-12-20T08:04:30;100167.13;;;-0.94;100.00
75923;BME280;64602;47.542;19.090;2023-12-20T08:09:33;100173.44;;;-0.95;100.00
75923;BME280;64602;47.542;19.090;2023-12-20T08:14:38;100155.72;;;-1.02;100.00
75923;BME280;64602;47.542;19.090;2023-12-20T08:19:40;100158.66;;;-0.97;100.00
75923;BME280;64602;47.542;19.090;2023-12-20T08:24:43;100163.38;;;-0.84;100.00
75923;BME280;64602;47.542;19.090;2023-12-20T08:29:45;100162.81;;;-0.80;99.74
75923;BME280;64602;47.542;19.090;2023-12-20T08:34:48;100166.09;;;-0.78;99.61
75923;BME280;64602;47.542;19.090;2023-12-20T08:39:50;100160.22;;;-0.88;99.00
75923;BME280;64602;47.542;19.090;2023-12-20T08:44:53;100163.38;;;-0.84;98.74
75923;BME280;64602;47.542;19.090;2023-12-20T08:49:55;100175.94;;;-0.93;98.62
75923;BME280;64602;47.542;19.090;2023-12-20T08:54:58;100176.09;;;-0.95;98.39
75923;BME280;64602;47.542;19.090;2023-12-20T09:00:01;100175.56;;;-0.75;98.03
75923;BME280;64602;47.542;19.090;2023-12-20T09:05:03;100175.09;;;-0.64;97.87
75923;BME280;64602;47.542;19.090;2023-12-20T09:10:06;100166.47;;;-0.66;97.51
75923;BME280;64602;47.542;19.090;2023-12-20T09:15:08;100174.00;;;-0.55;96.63
75923;BME280;64602;47.542;19.090;2023-12-20T09:20:11;100151.31;;;-0.51;96.45
75923;BME280;64602;47.542;19.090;2023-12-20T09:25:15;100154.16;;;-0.52;95.80
75923;BME280;64602;47.542;19.090;2023-12-20T09:30:19;100169.94;;;-0.21;95.89
75923;BME280;64602;47.542;19.090;2023-12-20T09:35:28;100141.22;;;-0.19;95.12
75923;BME280;64602;47.542;19.090;2023-12-20T09:40:32;100133.38;;;0.16;94.32
75923;BME280;64602;47.542;19.090;2023-12-20T09:45:36;100126.59;;;0.35;94.09
75923;BME280;64602;47.542;19.090;2023-12-20T09:50:38;100131.94;;;0.63;93.35
75923;BME280;64602;47.542;19.090;2023-12-20T09:55:41;100112.19;;;0.57;92.69
75923;BME280;64602;47.542;19.090;2023-12-20T10:00:43;100117.34;;;0.59;92.42
75923;BME280;64602;47.542;19.090;2023-12-20T10:05:46;100101.94;;;0.89;91.95
75923;BME280;64602;47.542;19.090;2023-12-20T10:10:51;100097.81;;;0.87;91.24
75923;BME280;64602;47.542;19.090;2023-12-20T10:15:55;100087.50;;;1.18;90.68
75923;BME280;64602;47.542;19.090;2023-12-20T10:20:57;100097.16;;;1.61;88.70
75923;BME280;64602;47.542;19.090;2023-12-20T10:26:00;100098.41;;;1.71;87.98
75923;BME280;64602;47.542;19.090;2023-12-20T10:31:02;100067.56;;;2.89;84.96
75923;BME280;64602;47.542;19.090;2023-12-20T10:36:05;100048.34;;;3.12;82.99
75923;BME280;64602;47.542;19.090;2023-12-20T10:41:08;100037.06;;;4.80;78.68
75923;BME280;64602;47.542;19.090;2023-12-20T10:46:11;100041.28;;;10.34;59.03
75923;BME280;64602;47.542;19.090;2023-12-20T10:51:17;100048.09;;;10.74;58.75
75923;BME280;64602;47.542;19.090;2023-12-20T10:56:20;100033.66;;;14.99;44.92
75923;BME280;64602;47.542;19.090;2023-12-20T11:01:27;100024.69;;;17.66;36.96
75923;BME280;64602;47.542;19.090;2023-12-20T11:06:49;100029.75;;;20.35;33.91
75923;BME280;64602;47.542;19.090;2023-12-20T11:12:13;100037.94;;;22.27;30.31
75923;BME280;64602;47.542;19.090;2023-12-20T11:17:15;100012.53;;;25.09;27.94
75923;BME280;64602;47.542;19.090;2023-12-20T11:22:20;100009.28;;;25.90;26.73
75923;BME280;64602;47.542;19.090;2023-12-20T11:27:23;100000.09;;;27.17;26.42
75923;BME280;64602;47.542;19.090;2023-12-20T11:37:38;99990.25;;;27.23;22.58
75923;BME280;64602;47.542;19.090;2023-12-20T11:42:45;99970.19;;;26.88;22.54
75923;BME280;64602;47.542;19.090;2023-12-20T11:47:51;99970.81;;;27.54;23.78
75923;BME280;64602;47.542;19.090;2023-12-20T11:52:55;99974.28;;;26.09;24.58
75923;BME280;64602;47.542;19.090;2023-12-20T11:57:58;99940.13;;;18.13;36.87
75923;BME280;64602;47.542;19.090;2023-12-20T12:03:00;99963.50;;;23.41;27.96
75923;BME280;64602;47.542;19.090;2023-12-20T12:08:04;99945.38;;;18.23;35.10
75923;BME280;64602;47.542;19.090;2023-12-20T12:13:07;99923.56;;;14.74;42.54
75923;BME280;64602;47.542;19.090;2023-12-20T12:18:10;99912.22;;;12.70;48.08
75923;BME280;64602;47.542;19.090;2023-12-20T12:23:12;99905.84;;;14.43;46.57
75923;BME280;64602;47.542;19.090;2023-12-20T12:28:15;99898.62;;;11.01;53.43
75923;BME280;64602;47.542;19.090;2023-12-20T12:33:18;99909.09;;;9.87;58.05
75923;BME280;64602;47.542;19.090;2023-12-20T12:38:24;99898.53;;;9.26;60.91
75923;BME280;64602;47.542;19.090;2023-12-20T12:43:26;99898.19;;;8.51;63.47
75923;BME280;64602;47.542;19.090;2023-12-20T12:48:28;99896.47;;;7.89;66.32
75923;BME280;64602;47.542;19.090;2023-12-20T12:53:31;99906.81;;;7.30;69.04
75923;BME280;64602;47.542;19.090;2023-12-20T12:58:33;99903.69;;;6.93;72.01
75923;BME280;64602;47.542;19.090;2023-12-20T13:03:35;99893.66;;;6.64;73.27
75923;BME280;64602;47.542;19.090;2023-12-20T13:08:38;99909.16;;;6.46;74.37
75923;BME280;64602;47.542;19.090;2023-12-20T13:13:40;99893.53;;;6.19;75.41
75923;BME280;64602;47.542;19.090;2023-12-20T13:18:42;99899.25;;;5.99;75.00
75923;BME280;64602;47.542;19.090;2023-12-20T13:23:44;99910.22;;;5.74;75.30
75923;BME280;64602;47.542;19.090;2023-12-20T13:28:47;99903.84;;;5.56;76.67
75923;BME280;64602;47.542;19.090;2023-12-20T13:33:49;99879.78;;;5.31;76.98
75923;BME280;64602;47.542;19.090;2023-12-20T13:38:51;99897.44;;;5.16;77.84
75923;BME280;64602;47.542;19.090;2023-12-20T13:43:53;99889.16;;;4.99;78.15
75923;BME280;64602;47.542;19.090;2023-12-20T13:48:56;99883.25;;;4.78;78.16
75923;BME280;64602;47.542;19.090;2023-12-20T13:53:58;99868.09;;;4.65;79.57
75923;BME280;64602;47.542;19.090;2023-12-20T13:59:00;99868.41;;;4.57;79.18
75923;BME280;64602;47.542;19.090;2023-12-20T14:04:03;99874.50;;;4.46;80.09
75923;BME280;64602;47.542;19.090;2023-12-20T14:09:05;99867.59;;;4.38;80.46
75923;BME280;64602;47.542;19.090;2023-12-20T14:14:07;99859.59;;;4.32;81.28
75923;BME280;64602;47.542;19.090;2023-12-20T14:19:10;99891.16;;;4.36;81.56
75923;BME280;64602;47.542;19.090;2023-12-20T14:24:13;99888.13;;;4.33;81.99
75923;BME280;64602;47.542;19.090;2023-12-20T14:29:16;99895.88;;;4.41;82.78
75923;BME280;64602;47.542;19.090;2023-12-20T14:34:18;99892.06;;;4.48;83.21
75923;BME280;64602;47.542;19.090;2023-12-20T14:39:21;99887.50;;;4.49;82.73
75923;BME280;64602;47.542;19.090;2023-12-20T14:44:24;99884.09;;;4.42;83.28
75923;BME280;64602;47.542;19.090;2023-12-20T14:49:26;99896.75;;;4.53;83.17
75923;BME280;64602;47.542;19.090;2023-12-20T14:54:29;99890.56;;;4.53;82.87
75923;BME280;64602;47.542;19.090;2023-12-20T14:59:31;99901.59;;;4.81;83.35
75923;BME280;64602;47.542;19.090;2023-12-20T15:04:34;99906.00;;;4.76;83.60
75923;BME280;64602;47.542;19.090;2023-12-20T15:09:36;99903.47;;;4.81;83.16
75923;BME280;64602;47.542;19.090;2023-12-20T15:14:38;99911.91;;;4.66;83.09
75923;BME280;64602;47.542;19.090;2023-12-20T15:19:41;99939.31;;;4.56;83.30
75923;BME280;64602;47.542;19.090;2023-12-20T15:24:45;99936.75;;;4.24;83.82
75923;BME280;64602;47.542;19.090;2023-12-20T15:29:48;99928.62;;;4.13;84.31
75923;BME280;64602;47.542;19.090;2023-12-20T15:34:53;99950.91;;;4.13;84.48
75923;BME280;64602;47.542;19.090;2023-12-20T15:39:55;99962.75;;;4.05;85.16
75923;BME280;64602;47.542;19.090;2023-12-20T15:44:57;99968.34;;;4.04;85.14
75923;BME280;64602;47.542;19.090;2023-12-20T15:50:00;99972.94;;;3.97;85.43
75923;BME280;64602;47.542;19.090;2023-12-20T15:55:02;99963.94;;;3.84;85.72
75923;BME280;64602;47.542;19.090;2023-12-20T16:00:05;99988.28;;;3.90;85.85
75923;BME280;64602;47.542;19.090;2023-12-20T16:05:07;99991.81;;;3.83;85.84
75923;BME280;64602;47.542;19.090;2023-12-20T16:10:10;99999.53;;;3.73;86.39
75923;BME280;64602;47.542;19.090;2023-12-20T16:15:13;99983.97;;;3.57;86.96
75923;BME280;64602;47.542;19.090;2023-12-20T16:20:15;99999.47;;;3.55;87.78
75923;BME280;64602;47.542;19.090;2023-12-20T16:25:17;100002.16;;;3.48;87.92
75923;BME280;64602;47.542;19.090;2023-12-20T16:30:19;100012.31;;;3.39;88.33
75923;BME280;64602;47.542;19.090;2023-12-20T16:35:22;100020.88;;;3.23;89.03
75923;BME280;64602;47.542;19.090;2023-12-20T16:40:24;100026.63;;;3.20;89.04
75923;BME280;64602;47.542;19.090;2023-12-20T16:45:26;100010.63;;;3.07;89.72
75923;BME280;64602;47.542;19.090;2023-12-20T16:50:29;100022.97;;;3.08;90.18
75923;BME280;64602;47.542;19.090;2023-12-20T16:55:31;100024.66;;;2.95;90.67
75923;BME280;64602;47.542;19.090;2023-12-20T17:00:33;100034.19;;;2.91;91.14
75923;BME280;64602;47.542;19.090;2023-12-20T17:05:36;100040.56;;;2.84;91.50
75923;BME280;64602;47.542;19.090;2023-12-20T17:10:38;100035.62;;;2.81;91.95
75923;BME280;64602;47.542;19.090;2023-12-20T17:15:40;100051.72;;;2.87;92.16
75923;BME280;64602;47.542;19.090;2023-12-20T17:20:43;100061.00;;;2.85;92.21
75923;BME280;64602;47.542;19.090;2023-12-20T17:25:45;100049.22;;;2.79;92.53
75923;BME280;64602;47.542;19.090;2023-12-20T17:30:47;100052.78;;;2.66;92.70
75923;BME280;64602;47.542;19.090;2023-12-20T17:35:50;100057.13;;;2.61;92.76
75923;BME280;64602;47.542;19.090;2023-12-20T17:40:56;100067.22;;;2.59;92.89
75923;BME280;64602;47.542;19.090;2023-12-20T17:45:58;100068.03;;;2.46;93.55
75923;BME280;64602;47.542;19.090;2023-12-20T17:51:00;100076.50;;;2.36;94.01
75923;BME280;64602;47.542;19.090;2023-12-20T17:56:03;100071.75;;;2.25;94.42
75923;BME280;64602;47.542;19.090;2023-12-20T18:01:06;100090.09;;;2.34;94.60
75923;BME280;64602;47.542;19.090;2023-12-20T18:06:08;100085.53;;;2.35;95.11
75923;BME280;64602;47.542;19.090;2023-12-20T18:11:10;100078.13;;;2.37;94.38
75923;BME280;64602;47.542;19.090;2023-12-20T18:16:12;100093.59;;;2.42;94.74
75923;BME280;64602;47.542;19.090;2023-12-20T18:21:14;100111.09;;;2.44;94.73
75923;BME280;64602;47.542;19.090;2023-12-20T18:26:17;100090.69;;;2.37;94.23
75923;BME280;64602;47.542;19.090;2023-12-20T18:31:19;100095.63;;;2.33;94.79
75923;BME280;64602;47.542;19.090;2023-12-20T18:36:22;100094.81;;;2.32;95.45
75923;BME280;64602;47.542;19.090;2023-12-20T18:41:24;100106.56;;;2.38;95.67
75923;BME280;64602;47.542;19.090;2023-12-20T18:46:27;100111.94;;;2.38;95.77
75923;BME280;64602;47.542;19.090;2023-12-20T18:51:29;100091.72;;;2.29;95.86
75923;BME280;64602;47.542;19.090;2023-12-20T18:56:31;100107.38;;;2.32;95.96
75923;BME280;64602;47.542;19.090;2023-12-20T19:01:33;100102.03;;;2.19;96.29
75923;BME280;64602;47.542;19.090;2023-12-20T19:06:36;100125.50;;;2.17;96.39
75923;BME280;64602;47.542;19.090;2023-12-20T19:11:38;100119.69;;;2.00;96.49
75923;BME280;64602;47.542;19.090;2023-12-20T19:16:40;100121.56;;;1.99;96.72
75923;BME280;64602;47.542;19.090;2023-12-20T19:21:42;100135.06;;;1.84;97.10
75923;BME280;64602;47.542;19.090;2023-12-20T19:26:45;100143.94;;;1.85;97.13
75923;BME280;64602;47.542;19.090;2023-12-20T19:31:47;100141.69;;;1.88;97.54
75923;BME280;64602;47.542;19.090;2023-12-20T19:36:50;100147.06;;;1.95;98.16
75923;BME280;64602;47.542;19.090;2023-12-20T19:41:52;100129.56;;;1.92;98.47
75923;BME280;64602;47.542;19.090;2023-12-20T19:46:54;100130.41;;;2.00;98.64
75923;BME280;64602;47.542;19.090;2023-12-20T19:51:56;100148.31;;;2.06;98.35
75923;BME280;64602;47.542;19.090;2023-12-20T19:56:58;100143.38;;;2.03;98.21
75923;BME280;64602;47.542;19.090;2023-12-20T20:02:01;100145.84;;;1.98;98.22
75923;BME280;64602;47.542;19.090;2023-12-20T20:07:03;100136.94;;;1.84;98.29
75923;BME280;64602;47.542;19.090;2023-12-20T20:12:11;100140.44;;;1.78;98.33
75923;BME280;64602;47.542;19.090;2023-12-20T20:17:13;100151.75;;;1.80;98.51
75923;BME280;64602;47.542;19.090;2023-12-20T20:22:15;100129.03;;;1.62;98.60
75923;BME280;64602;47.542;19.090;2023-12-20T20:27:19;100152.72;;;1.65;98.88
75923;BME280;64602;47.542;19.090;2023-12-20T20:32:23;100161.75;;;1.64;98.84
75923;BME280;64602;47.542;19.090;2023-12-20T20:37:26;100142.59;;;1.54;98.99
75923;BME280;64602;47.542;19.090;2023-12-20T20:42:28;100136.38;;;1.47;98.75
75923;BME280;64602;47.542;19.090;2023-12-20T20:47:30;100142.41;;;1.56;99.41
75923;BME280;64602;47.542;19.090;2023-12-20T20:52:33;100159.34;;;1.76;99.74
75923;BME280;64602;47.542;19.090;2023-12-20T20:57:35;100148.66;;;1.76;99.67
75923;BME280;64602;47.542;19.090;2023-12-20T21:02:37;100140.84;;;1.81;99.71
75923;BME280;64602;47.542;19.090;2023-12-20T21:07:39;100148.25;;;1.86;99.44
75923;BME280;64602;47.542;19.090;2023-12-20T21:12:43;100144.12;;;1.83;99.34
75923;BME280;64602;47.542;19.090;2023-12-20T21:17:45;100143.66;;;1.66;99.25
75923;BME280;64602;47.542;19.090;2023-12-20T21:22:48;100145.53;;;1.66;99.24
75923;BME280;64602;47.542;19.090;2023-12-20T21:27:50;100146.31;;;1.60;99.44
75923;BME280;64602;47.542;19.090;2023-12-20T21:32:54;100135.37;;;1.55;99.47
75923;BME280;64602;47.542;19.090;2023-12-20T21:37:56;100148.75;;;1.55;99.50
75923;BME280;64602;47.542;19.090;2023-12-20T21:42:58;100130.81;;;1.42;99.74
75923;BME280;64602;47.542;19.090;2023-12-20T21:48:02;100144.84;;;1.51;99.85
75923;BME280;64602;47.542;19.090;2023-12-20T21:53:05;100147.25;;;1.45;100.00
75923;BME280;64602;47.542;19.090;2023-12-20T21:58:13;100139.69;;;1.49;100.00
75923;BME280;64602;47.542;19.090;2023-12-20T22:03:15;100135.69;;;1.32;100.00
75923;BME280;64602;47.542;19.090;2023-12-20T22:08:17;100152.09;;;1.28;100.00
75923;BME280;64602;47.542;19.090;2023-12-20T22:13:19;100149.37;;;1.15;100.00
75923;BME280;64602;47.542;19.090;2023-12-20T22:18:21;100136.78;;;1.09;100.00
75923;BME280;64602;47.542;19.090;2023-12-20T22:23:23;100117.81;;;0.97;100.00
75923;BME280;64602;47.542;19.090;2023-12-20T22:28:26;100119.41;;;0.92;100.00
75923;BME280;64602;47.542;19.090;2023-12-20T22:33:28;100119.81;;;0.89;100.00
75923;BME280;64602;47.542;19.090;2023-12-20T22:38:30;100128.28;;;0.99;100.00
75923;BME280;64602;47.542;19.090;2023-12-20T22:43:37;100117.56;;;0.92;100.00
75923;BME280;64602;47.542;19.090;2023-12-20T22:48:39;100136.31;;;0.99;100.00
75923;BME280;64602;47.542;19.090;2023-12-20T22:53:41;100109.13;;;0.89;100.00
75923;BME280;64602;47.542;19.090;2023-12-20T22:58:44;100127.25;;;0.93;100.00
75923;BME280;64602;47.542;19.090;2023-12-20T23:03:46;100118.25;;;1.01;100.00
75923;BME280;64602;47.542;19.090;2023-12-20T23:08:48;100105.16;;;1.13;100.00
75923;BME280;64602;47.542;19.090;2023-12-20T23:13:50;100121.59;;;1.51;99.83
75923;BME280;64602;47.542;19.090;2023-12-20T23:18:57;100116.13;;;1.79;98.39
75923;BME280;64602;47.542;19.090;2023-12-20T23:24:00;100109.59;;;1.95;97.18
75923;BME280;64602;47.542;19.090;2023-12-20T23:29:02;100099.13;;;2.07;96.63
75923;BME280;64602;47.542;19.090;2023-12-20T23:34:04;100095.22;;;2.16;95.94
75923;BME280;64602;47.542;19.090;2023-12-20T23:39:07;100084.31;;;2.18;95.29
75923;BME280;64602;47.542;19.090;2023-12-20T23:44:09;100100.78;;;2.28;94.95
75923;BME280;64602;47.542;19.090;2023-12-20T23:49:11;100089.03;;;2.22;94.48
75923;BME280;64602;47.542;19.090;2023-12-20T23:54:14;100092.53;;;2.23;94.48
75923;BME280;64602;47.542;19.090;2023-12-20T23:59:16;100097.69;;;2.24;94.35
